CheckWX is a tool to help pilots better visualize weather data.  It is not intended as a substitute for an official pre-flight weather briefing.

10:21:49 UTC

HTDA TAF
Julius Nyerere International Airport
Dar es Salaam, Tanzania
TAF HTDA 140500Z 1406/1512 01010KT 9999 BKN020 FEW021CB BECMG 1413/1416 SCT025 FEW026CB

Dec-14@
06:00 UTC

Dec-14 @ 06:00 UTC

Dec-14@
13:00 UTC

Dec-14 @ 13:00 UTC

TAF HTDA 140500Z 1406/1512 01010KT 9999 BKN020 FEW021CB
Wind
  • 010° at 10 KTS
Cloud Levels
  • Broken at 2,000' AGL
  • Few at 2,100' AGL

Dec-14@
13:00 UTC

Dec-14 @ 13:00 UTC

Dec-15@
12:00 UTC

Dec-15 @ 12:00 UTC

BECMG 1413/1416 SCT025 FEW026CB

Becoming

Becoming Conditions expected by Sat, Dec 14, 2019 @ 16:00 UTC

Wind
  • 010° at 10 KTS
Cloud Levels
  • Scattered at 2,500' AGL
  • Few at 2,600' AGL